Airfield :
LOGIN :

Register | Disclaimer

   EN    FR    IT 

 










Legend :    VFR   Marginal VFR   IFR   Intensive IFR   Very Intensive IFR
Visi :
Ceiling :
>= 8 km
>= 3000ft
5 to 8 km
1000 to 3000 ft
1500m to 5 km
500 to 1000 ft
800 to 1500m
200 to 500 ft
< 800m
< 200 ft
Symbols :   Thunderstorms  Fog  Heavy snow  Heavy precipitations  Wind > 20 kt
SIGMETs :     Misc.  Thunderstorms  Icing  Turbulence  Mountain Waves  Volcanic Ashes







- Airport Elevation : 17 ft
- IATA code : GRQ


EHGG - Groningen Eelde

CURRENT METAR :
  • 190225Z AUTO 25010KT 9999 SCT028 SCT034 BKN047 05/03 Q1011

EXPIRED METARs :
  • 190155Z AUTO 26008KT 230V300 9999 -RA FEW015CB SCT020 BKN029 06/03 Q1011
  • 190125Z AUTO 28007KT 210V340 9999 -RA FEW015CB SCT019 BKN032 05/03 Q1011
  • 190055Z AUTO 25008KT 9999 FEW015CB SCT041 05/01 Q1011
  • 190025Z AUTO 25008KT 9999 FEW040 SCT045 04/01 Q1011
  • 182355Z AUTO 25004KT 210V270 9999 NSC 03/01 Q1011

TAF TAF EHGG
Valid from the 19 at 00:00 until the 20 at 06:00 UTC


182308Z 1900/2006 27009KT 9999 FEW035
PROB40
TEMPO 1900/1909 28015G25KT 4000 SHRA BKN012 SCT015CB BKN020
BECMG 1909/1912 30015G25KT
PROB40
TEMPO 1909/1918 31017G28KT 6000 -SHRA SCT012 SCT020TCU
BECMG 1921/1924 26006KT
PROB40 1923/2002 7000 -RA BKN020
No reported NOTAMs for that airfield.



MET'MAP, your aeronautical weather chart ! - Copyright ORBIFLY December 2007 - Disclaimer

ORBIFLY MET'MAP TEAM :

Programming & Development : Alexandra Zaïnal
Concept & Development : Baudouin d'Aumeries
Co-Development & Prog : Marc-Olivier Méhu
Technical & hardware support : Manuel Goepfert

Contact : metmap@orbifly.com




SOURCES & CREDITS :

   NOAA